sensor_id;sensor_type;location;lat;lon;timestamp;temperature;humidity
4107;DHT22;21906;50.812;7.132;2023-10-09T00:01:17;16.10;82.20
4107;DHT22;21906;50.812;7.132;2023-10-09T00:03:44;16.10;82.20
4107;DHT22;21906;50.812;7.132;2023-10-09T00:06:11;16.00;82.20
4107;DHT22;21906;50.812;7.132;2023-10-09T00:08:39;16.10;82.10
4107;DHT22;21906;50.812;7.132;2023-10-09T00:11:10;16.10;82.20
4107;DHT22;21906;50.812;7.132;2023-10-09T00:13:43;16.10;82.20
4107;DHT22;21906;50.812;7.132;2023-10-09T00:16:16;16.10;82.10
4107;DHT22;21906;50.812;7.132;2023-10-09T00:18:42;16.00;81.90
4107;DHT22;21906;50.812;7.132;2023-10-09T00:21:16;16.00;82.00
4107;DHT22;21906;50.812;7.132;2023-10-09T00:23:41;16.00;81.90
4107;DHT22;21906;50.812;7.132;2023-10-09T00:26:10;16.00;81.90
4107;DHT22;21906;50.812;7.132;2023-10-09T00:28:38;16.00;81.70
4107;DHT22;21906;50.812;7.132;2023-10-09T00:31:10;16.00;81.70
4107;DHT22;21906;50.812;7.132;2023-10-09T00:33:42;16.00;81.70
4107;DHT22;21906;50.812;7.132;2023-10-09T00:36:08;16.00;81.60
4107;DHT22;21906;50.812;7.132;2023-10-09T00:38:43;16.00;81.60
4107;DHT22;21906;50.812;7.132;2023-10-09T00:41:16;16.00;81.40
4107;DHT22;21906;50.812;7.132;2023-10-09T00:43:50;15.90;81.40
4107;DHT22;21906;50.812;7.132;2023-10-09T00:46:18;15.90;81.50
4107;DHT22;21906;50.812;7.132;2023-10-09T00:48:45;15.90;81.40
4107;DHT22;21906;50.812;7.132;2023-10-09T00:51:13;15.90;81.50
4107;DHT22;21906;50.812;7.132;2023-10-09T00:54:04;15.90;81.40
4107;DHT22;21906;50.812;7.132;2023-10-09T00:56:40;15.90;81.40
4107;DHT22;21906;50.812;7.132;2023-10-09T00:59:10;15.90;81.30
4107;DHT22;21906;50.812;7.132;2023-10-09T01:01:45;15.90;81.50
4107;DHT22;21906;50.812;7.132;2023-10-09T01:04:43;15.80;81.50
4107;DHT22;21906;50.812;7.132;2023-10-09T01:07:10;15.80;81.50
4107;DHT22;21906;50.812;7.132;2023-10-09T01:09:46;15.80;81.30
4107;DHT22;21906;50.812;7.132;2023-10-09T01:12:15;15.70;81.10
4107;DHT22;21906;50.812;7.132;2023-10-09T01:14:44;15.70;81.10
4107;DHT22;21906;50.812;7.132;2023-10-09T01:17:10;15.70;81.00
4107;DHT22;21906;50.812;7.132;2023-10-09T01:19:37;15.70;81.00
4107;DHT22;21906;50.812;7.132;2023-10-09T01:22:03;15.70;80.90
4107;DHT22;21906;50.812;7.132;2023-10-09T01:24:41;15.60;80.90
4107;DHT22;21906;50.812;7.132;2023-10-09T01:27:07;15.60;81.00
4107;DHT22;21906;50.812;7.132;2023-10-09T01:29:40;15.60;80.70
4107;DHT22;21906;50.812;7.132;2023-10-09T01:32:07;15.60;80.60
4107;DHT22;21906;50.812;7.132;2023-10-09T01:34:41;15.50;80.70
4107;DHT22;21906;50.812;7.132;2023-10-09T01:37:15;15.50;80.80
4107;DHT22;21906;50.812;7.132;2023-10-09T01:39:55;15.50;80.60
4107;DHT22;21906;50.812;7.132;2023-10-09T01:42:24;15.40;80.80
4107;DHT22;21906;50.812;7.132;2023-10-09T01:44:59;15.40;80.80
4107;DHT22;21906;50.812;7.132;2023-10-09T01:47:35;15.40;80.80
4107;DHT22;21906;50.812;7.132;2023-10-09T01:50:04;15.50;81.00
4107;DHT22;21906;50.812;7.132;2023-10-09T01:52:30;15.40;81.10
4107;DHT22;21906;50.812;7.132;2023-10-09T01:54:56;15.40;81.20
4107;DHT22;21906;50.812;7.132;2023-10-09T01:57:27;15.40;81.20
4107;DHT22;21906;50.812;7.132;2023-10-09T01:59:55;15.50;81.20
4107;DHT22;21906;50.812;7.132;2023-10-09T02:02:23;15.50;81.30
4107;DHT22;21906;50.812;7.132;2023-10-09T02:04:53;15.40;81.30
4107;DHT22;21906;50.812;7.132;2023-10-09T02:07:20;15.40;81.20
4107;DHT22;21906;50.812;7.132;2023-10-09T02:09:54;15.40;81.30
4107;DHT22;21906;50.812;7.132;2023-10-09T02:12:19;15.40;81.20
4107;DHT22;21906;50.812;7.132;2023-10-09T02:14:47;15.40;81.10
4107;DHT22;21906;50.812;7.132;2023-10-09T02:17:13;15.40;81.10
4107;DHT22;21906;50.812;7.132;2023-10-09T02:19:45;15.30;81.20
4107;DHT22;21906;50.812;7.132;2023-10-09T02:22:15;15.30;81.20
4107;DHT22;21906;50.812;7.132;2023-10-09T02:24:42;15.30;81.10
4107;DHT22;21906;50.812;7.132;2023-10-09T02:27:13;15.30;81.20
4107;DHT22;21906;50.812;7.132;2023-10-09T02:29:48;15.20;81.20
4107;DHT22;21906;50.812;7.132;2023-10-09T02:32:13;15.30;81.10
4107;DHT22;21906;50.812;7.132;2023-10-09T02:34:41;15.30;81.10
4107;DHT22;21906;50.812;7.132;2023-10-09T02:37:11;15.40;81.10
4107;DHT22;21906;50.812;7.132;2023-10-09T02:39:39;15.40;81.20
4107;DHT22;21906;50.812;7.132;2023-10-09T02:42:13;15.40;81.10
4107;DHT22;21906;50.812;7.132;2023-10-09T02:44:39;15.40;81.00
4107;DHT22;21906;50.812;7.132;2023-10-09T02:47:12;15.30;81.10
4107;DHT22;21906;50.812;7.132;2023-10-09T02:49:45;15.40;81.00
4107;DHT22;21906;50.812;7.132;2023-10-09T02:52:13;15.30;81.10
4107;DHT22;21906;50.812;7.132;2023-10-09T02:54:44;15.30;81.20
4107;DHT22;21906;50.812;7.132;2023-10-09T02:57:12;15.30;81.20
4107;DHT22;21906;50.812;7.132;2023-10-09T02:59:48;15.40;81.20
4107;DHT22;21906;50.812;7.132;2023-10-09T03:02:19;15.30;81.30
4107;DHT22;21906;50.812;7.132;2023-10-09T03:04:45;15.30;81.40
4107;DHT22;21906;50.812;7.132;2023-10-09T03:07:11;15.30;81.50
4107;DHT22;21906;50.812;7.132;2023-10-09T03:09:39;15.30;81.40
4107;DHT22;21906;50.812;7.132;2023-10-09T03:12:06;15.30;81.60
4107;DHT22;21906;50.812;7.132;2023-10-09T03:14:36;15.30;81.60
4107;DHT22;21906;50.812;7.132;2023-10-09T03:17:06;15.30;81.50
4107;DHT22;21906;50.812;7.132;2023-10-09T03:19:37;15.40;81.60
4107;DHT22;21906;50.812;7.132;2023-10-09T03:22:08;15.40;81.70
4107;DHT22;21906;50.812;7.132;2023-10-09T03:24:38;15.40;81.60
4107;DHT22;21906;50.812;7.132;2023-10-09T03:27:04;15.40;81.50
4107;DHT22;21906;50.812;7.132;2023-10-09T03:29:30;15.40;81.50
4107;DHT22;21906;50.812;7.132;2023-10-09T03:31:56;15.40;81.50
4107;DHT22;21906;50.812;7.132;2023-10-09T03:34:23;15.40;81.40
4107;DHT22;21906;50.812;7.132;2023-10-09T03:36:49;15.40;81.40
4107;DHT22;21906;50.812;7.132;2023-10-09T03:39:25;15.30;81.30
4107;DHT22;21906;50.812;7.132;2023-10-09T03:41:59;15.40;81.40
4107;DHT22;21906;50.812;7.132;2023-10-09T03:44:25;15.40;81.30
4107;DHT22;21906;50.812;7.132;2023-10-09T03:46:54;15.40;81.30
4107;DHT22;21906;50.812;7.132;2023-10-09T03:49:20;15.40;81.20
4107;DHT22;21906;50.812;7.132;2023-10-09T03:51:49;15.40;81.20
4107;DHT22;21906;50.812;7.132;2023-10-09T03:54:16;15.40;81.20
4107;DHT22;21906;50.812;7.132;2023-10-09T03:56:48;15.40;81.10
4107;DHT22;21906;50.812;7.132;2023-10-09T03:59:20;15.40;81.10
4107;DHT22;21906;50.812;7.132;2023-10-09T04:01:47;15.30;81.20
4107;DHT22;21906;50.812;7.132;2023-10-09T04:04:14;15.40;81.20
4107;DHT22;21906;50.812;7.132;2023-10-09T04:06:40;15.40;81.20
4107;DHT22;21906;50.812;7.132;2023-10-09T04:09:10;15.40;81.20
4107;DHT22;21906;50.812;7.132;2023-10-09T04:11:51;15.40;81.10
4107;DHT22;21906;50.812;7.132;2023-10-09T04:14:39;15.40;81.00
4107;DHT22;21906;50.812;7.132;2023-10-09T04:17:30;15.30;81.20
4107;DHT22;21906;50.812;7.132;2023-10-09T04:19:59;15.20;81.30
4107;DHT22;21906;50.812;7.132;2023-10-09T04:22:43;15.20;81.20
4107;DHT22;21906;50.812;7.132;2023-10-09T04:25:25;15.20;81.20
4107;DHT22;21906;50.812;7.132;2023-10-09T04:27:53;15.30;81.20
4107;DHT22;21906;50.812;7.132;2023-10-09T04:30:19;15.30;81.20
4107;DHT22;21906;50.812;7.132;2023-10-09T04:32:45;15.30;81.20
4107;DHT22;21906;50.812;7.132;2023-10-09T04:35:16;15.30;81.10
4107;DHT22;21906;50.812;7.132;2023-10-09T04:37:48;15.30;81.00
4107;DHT22;21906;50.812;7.132;2023-10-09T04:40:34;15.30;81.20
4107;DHT22;21906;50.812;7.132;2023-10-09T04:43:11;15.30;81.30
4107;DHT22;21906;50.812;7.132;2023-10-09T04:45:48;15.30;81.40
4107;DHT22;21906;50.812;7.132;2023-10-09T04:48:32;15.30;81.40
4107;DHT22;21906;50.812;7.132;2023-10-09T04:50:59;15.30;81.40
4107;DHT22;21906;50.812;7.132;2023-10-09T04:53:58;15.30;81.50
4107;DHT22;21906;50.812;7.132;2023-10-09T04:56:41;15.30;81.60
4107;DHT22;21906;50.812;7.132;2023-10-09T04:59:20;15.30;81.60
4107;DHT22;21906;50.812;7.132;2023-10-09T05:01:51;15.40;81.60
4107;DHT22;21906;50.812;7.132;2023-10-09T05:04:26;15.30;81.70
4107;DHT22;21906;50.812;7.132;2023-10-09T05:07:06;15.30;81.70
4107;DHT22;21906;50.812;7.132;2023-10-09T05:10:02;15.20;81.80
4107;DHT22;21906;50.812;7.132;2023-10-09T05:12:40;15.20;81.80
4107;DHT22;21906;50.812;7.132;2023-10-09T05:15:13;15.30;81.80
4107;DHT22;21906;50.812;7.132;2023-10-09T05:17:39;15.20;81.90
4107;DHT22;21906;50.812;7.132;2023-10-09T05:20:06;15.20;82.00
4107;DHT22;21906;50.812;7.132;2023-10-09T05:22:55;15.20;82.00
4107;DHT22;21906;50.812;7.132;2023-10-09T05:25:27;15.20;82.10
4107;DHT22;21906;50.812;7.132;2023-10-09T05:28:11;15.20;82.20
4107;DHT22;21906;50.812;7.132;2023-10-09T05:30:58;15.20;82.10
4107;DHT22;21906;50.812;7.132;2023-10-09T05:33:55;15.30;82.00
4107;DHT22;21906;50.812;7.132;2023-10-09T05:36:27;15.30;82.00
4107;DHT22;21906;50.812;7.132;2023-10-09T05:38:52;15.30;81.90
4107;DHT22;21906;50.812;7.132;2023-10-09T05:41:27;15.30;81.90
4107;DHT22;21906;50.812;7.132;2023-10-09T05:44:11;15.30;81.90
4107;DHT22;21906;50.812;7.132;2023-10-09T05:46:56;15.40;81.80
4107;DHT22;21906;50.812;7.132;2023-10-09T05:49:50;15.40;81.60
4107;DHT22;21906;50.812;7.132;2023-10-09T05:52:52;15.20;81.70
4107;DHT22;21906;50.812;7.132;2023-10-09T05:55:25;15.00;82.40
4107;DHT22;21906;50.812;7.132;2023-10-09T05:58:09;14.90;82.90
4107;DHT22;21906;50.812;7.132;2023-10-09T06:00:53;15.00;82.70
4107;DHT22;21906;50.812;7.132;2023-10-09T06:03:37;15.00;82.60
4107;DHT22;21906;50.812;7.132;2023-10-09T06:06:20;15.00;82.70
4107;DHT22;21906;50.812;7.132;2023-10-09T06:09:04;15.10;82.50
4107;DHT22;21906;50.812;7.132;2023-10-09T06:11:36;15.20;82.20
4107;DHT22;21906;50.812;7.132;2023-10-09T06:14:02;15.20;82.20
4107;DHT22;21906;50.812;7.132;2023-10-09T06:16:31;15.20;82.20
4107;DHT22;21906;50.812;7.132;2023-10-09T06:19:25;15.10;82.20
4107;DHT22;21906;50.812;7.132;2023-10-09T06:21:51;15.30;82.30
4107;DHT22;21906;50.812;7.132;2023-10-09T06:24:35;15.30;82.10
4107;DHT22;21906;50.812;7.132;2023-10-09T06:27:11;15.40;82.00
4107;DHT22;21906;50.812;7.132;2023-10-09T06:29:38;15.40;82.00
4107;DHT22;21906;50.812;7.132;2023-10-09T06:32:17;15.40;82.00
4107;DHT22;21906;50.812;7.132;2023-10-09T06:34:52;15.40;82.00
4107;DHT22;21906;50.812;7.132;2023-10-09T06:37:19;15.50;82.10
4107;DHT22;21906;50.812;7.132;2023-10-09T06:39:51;15.50;82.10
4107;DHT22;21906;50.812;7.132;2023-10-09T06:42:27;15.60;82.10
4107;DHT22;21906;50.812;7.132;2023-10-09T06:45:01;15.60;82.20
4107;DHT22;21906;50.812;7.132;2023-10-09T06:47:31;15.60;82.20
4107;DHT22;21906;50.812;7.132;2023-10-09T06:50:10;15.70;82.10
4107;DHT22;21906;50.812;7.132;2023-10-09T06:52:45;15.80;82.00
4107;DHT22;21906;50.812;7.132;2023-10-09T06:55:24;15.80;81.80
4107;DHT22;21906;50.812;7.132;2023-10-09T06:58:09;15.80;81.90
4107;DHT22;21906;50.812;7.132;2023-10-09T07:00:41;15.90;81.90
4107;DHT22;21906;50.812;7.132;2023-10-09T07:03:26;15.90;82.00
4107;DHT22;21906;50.812;7.132;2023-10-09T07:06:17;15.90;82.30
4107;DHT22;21906;50.812;7.132;2023-10-09T07:08:51;15.90;82.30
4107;DHT22;21906;50.812;7.132;2023-10-09T07:11:32;16.00;82.60
4107;DHT22;21906;50.812;7.132;2023-10-09T07:14:12;16.10;82.40
4107;DHT22;21906;50.812;7.132;2023-10-09T07:19:44;16.20;82.20
4107;DHT22;21906;50.812;7.132;2023-10-09T07:22:13;16.30;82.30
4107;DHT22;21906;50.812;7.132;2023-10-09T07:27:27;16.20;83.10
4107;DHT22;21906;50.812;7.132;2023-10-09T07:30:15;16.30;82.90
4107;DHT22;21906;50.812;7.132;2023-10-09T07:33:07;16.40;82.60
4107;DHT22;21906;50.812;7.132;2023-10-09T07:35:38;16.50;82.50
4107;DHT22;21906;50.812;7.132;2023-10-09T07:38:11;16.60;82.30
4107;DHT22;21906;50.812;7.132;2023-10-09T07:40:38;16.70;82.10
4107;DHT22;21906;50.812;7.132;2023-10-09T07:43:25;16.70;81.90
4107;DHT22;21906;50.812;7.132;2023-10-09T07:46:04;16.80;81.70
4107;DHT22;21906;50.812;7.132;2023-10-09T07:48:29;16.90;81.60
4107;DHT22;21906;50.812;7.132;2023-10-09T07:51:14;16.90;81.60
4107;DHT22;21906;50.812;7.132;2023-10-09T07:53:40;17.00;81.40
4107;DHT22;21906;50.812;7.132;2023-10-09T07:56:10;17.00;81.40
4107;DHT22;21906;50.812;7.132;2023-10-09T07:58:39;17.10;81.40
4107;DHT22;21906;50.812;7.132;2023-10-09T08:01:14;17.20;81.40
4107;DHT22;21906;50.812;7.132;2023-10-09T08:04:01;17.30;81.30
4107;DHT22;21906;50.812;7.132;2023-10-09T08:06:53;17.30;81.10
4107;DHT22;21906;50.812;7.132;2023-10-09T08:09:23;17.40;81.00
4107;DHT22;21906;50.812;7.132;2023-10-09T08:12:08;17.40;80.80
4107;DHT22;21906;50.812;7.132;2023-10-09T08:15:05;17.40;80.80
4107;DHT22;21906;50.812;7.132;2023-10-09T08:17:51;17.50;80.70
4107;DHT22;21906;50.812;7.132;2023-10-09T08:20:25;17.50;80.80
4107;DHT22;21906;50.812;7.132;2023-10-09T08:22:54;17.50;80.90
4107;DHT22;21906;50.812;7.132;2023-10-09T08:25:23;17.50;81.10
4107;DHT22;21906;50.812;7.132;2023-10-09T08:27:55;17.50;81.10
4107;DHT22;21906;50.812;7.132;2023-10-09T08:30:24;17.60;80.90
4107;DHT22;21906;50.812;7.132;2023-10-09T08:32:50;17.60;80.50
4107;DHT22;21906;50.812;7.132;2023-10-09T08:35:31;17.70;80.40
4107;DHT22;21906;50.812;7.132;2023-10-09T08:38:14;17.70;80.30
4107;DHT22;21906;50.812;7.132;2023-10-09T08:40:41;17.80;80.10
4107;DHT22;21906;50.812;7.132;2023-10-09T08:45:45;17.90;79.90
4107;DHT22;21906;50.812;7.132;2023-10-09T08:48:12;17.90;79.90
4107;DHT22;21906;50.812;7.132;2023-10-09T08:50:46;18.00;79.80
4107;DHT22;21906;50.812;7.132;2023-10-09T08:53:16;18.10;79.80
4107;DHT22;21906;50.812;7.132;2023-10-09T08:55:42;18.10;79.80
4107;DHT22;21906;50.812;7.132;2023-10-09T08:58:09;18.10;79.90
4107;DHT22;21906;50.812;7.132;2023-10-09T09:00:52;18.20;79.90
4107;DHT22;21906;50.812;7.132;2023-10-09T09:03:21;18.20;79.90
4107;DHT22;21906;50.812;7.132;2023-10-09T09:06:00;18.20;79.80
4107;DHT22;21906;50.812;7.132;2023-10-09T09:08:27;18.20;79.50
4107;DHT22;21906;50.812;7.132;2023-10-09T09:11:16;18.20;80.00
4107;DHT22;21906;50.812;7.132;2023-10-09T09:14:00;18.10;79.30
4107;DHT22;21906;50.812;7.132;2023-10-09T09:16:40;18.20;79.60
4107;DHT22;21906;50.812;7.132;2023-10-09T09:19:10;18.40;79.80
4107;DHT22;21906;50.812;7.132;2023-10-09T09:21:37;18.50;79.80
4107;DHT22;21906;50.812;7.132;2023-10-09T09:24:08;18.60;79.70
4107;DHT22;21906;50.812;7.132;2023-10-09T09:27:04;18.70;79.60
4107;DHT22;21906;50.812;7.132;2023-10-09T09:29:44;18.90;79.50
4107;DHT22;21906;50.812;7.132;2023-10-09T09:32:32;18.90;79.30
4107;DHT22;21906;50.812;7.132;2023-10-09T09:35:12;18.90;79.10
4107;DHT22;21906;50.812;7.132;2023-10-09T09:37:52;19.10;77.80
4107;DHT22;21906;50.812;7.132;2023-10-09T09:40:19;19.20;76.90
4107;DHT22;21906;50.812;7.132;2023-10-09T09:43:00;19.20;77.10
4107;DHT22;21906;50.812;7.132;2023-10-09T09:45:38;19.40;77.00
4107;DHT22;21906;50.812;7.132;2023-10-09T09:48:12;19.50;76.50
4107;DHT22;21906;50.812;7.132;2023-10-09T09:50:41;19.60;76.20
4107;DHT22;21906;50.812;7.132;2023-10-09T09:53:15;19.60;76.20
4107;DHT22;21906;50.812;7.132;2023-10-09T09:55:50;19.70;75.80
4107;DHT22;21906;50.812;7.132;2023-10-09T09:58:23;19.90;75.20
4107;DHT22;21906;50.812;7.132;2023-10-09T10:00:56;19.90;74.80
4107;DHT22;21906;50.812;7.132;2023-10-09T10:03:36;20.00;74.50
4107;DHT22;21906;50.812;7.132;2023-10-09T10:06:05;20.20;72.30
4107;DHT22;21906;50.812;7.132;2023-10-09T10:08:36;20.30;71.40
4107;DHT22;21906;50.812;7.132;2023-10-09T10:11:05;20.30;70.00
4107;DHT22;21906;50.812;7.132;2023-10-09T10:13:55;20.40;69.60
4107;DHT22;21906;50.812;7.132;2023-10-09T10:16:24;20.40;70.40
4107;DHT22;21906;50.812;7.132;2023-10-09T10:19:04;20.40;70.30
4107;DHT22;21906;50.812;7.132;2023-10-09T10:21:36;20.40;69.90
4107;DHT22;21906;50.812;7.132;2023-10-09T10:33:08;20.80;68.20
4107;DHT22;21906;50.812;7.132;2023-10-09T10:35:38;20.90;67.40
4107;DHT22;21906;50.812;7.132;2023-10-09T10:38:33;20.90;67.30
4107;DHT22;21906;50.812;7.132;2023-10-09T10:41:24;21.00;66.30
4107;DHT22;21906;50.812;7.132;2023-10-09T10:43:50;21.00;65.20
4107;DHT22;21906;50.812;7.132;2023-10-09T10:46:16;21.10;64.70
4107;DHT22;21906;50.812;7.132;2023-10-09T10:49:01;21.20;64.60
4107;DHT22;21906;50.812;7.132;2023-10-09T10:51:56;21.20;65.30
4107;DHT22;21906;50.812;7.132;2023-10-09T10:54:44;21.20;65.70
4107;DHT22;21906;50.812;7.132;2023-10-09T10:57:23;21.40;64.10
4107;DHT22;21906;50.812;7.132;2023-10-09T10:59:56;21.40;62.30
4107;DHT22;21906;50.812;7.132;2023-10-09T11:02:43;21.40;62.00
4107;DHT22;21906;50.812;7.132;2023-10-09T11:05:09;21.40;62.20
4107;DHT22;21906;50.812;7.132;2023-10-09T11:07:51;21.40;61.90
4107;DHT22;21906;50.812;7.132;2023-10-09T11:10:24;21.50;62.50
4107;DHT22;21906;50.812;7.132;2023-10-09T11:12:54;21.50;63.60
4107;DHT22;21906;50.812;7.132;2023-10-09T11:15:36;21.50;63.90
4107;DHT22;21906;50.812;7.132;2023-10-09T11:18:23;21.50;62.20
4107;DHT22;21906;50.812;7.132;2023-10-09T11:20:54;21.50;62.80
4107;DHT22;21906;50.812;7.132;2023-10-09T11:23:32;21.40;62.50
4107;DHT22;21906;50.812;7.132;2023-10-09T11:26:03;21.40;62.80
4107;DHT22;21906;50.812;7.132;2023-10-09T11:29:10;21.50;62.20
4107;DHT22;21906;50.812;7.132;2023-10-09T11:32:02;21.60;64.80
4107;DHT22;21906;50.812;7.132;2023-10-09T11:34:32;21.70;61.60
4107;DHT22;21906;50.812;7.132;2023-10-09T11:37:12;21.80;62.10
4107;DHT22;21906;50.812;7.132;2023-10-09T11:39:39;21.90;62.00
4107;DHT22;21906;50.812;7.132;2023-10-09T11:42:21;22.00;60.50
4107;DHT22;21906;50.812;7.132;2023-10-09T11:45:27;22.00;60.90
4107;DHT22;21906;50.812;7.132;2023-10-09T11:47:57;22.00;61.00
4107;DHT22;21906;50.812;7.132;2023-10-09T12:05:56;22.20;61.40
4107;DHT22;21906;50.812;7.132;2023-10-09T12:08:24;22.20;61.00
4107;DHT22;21906;50.812;7.132;2023-10-09T12:10:55;22.30;61.50
4107;DHT22;21906;50.812;7.132;2023-10-09T12:13:24;22.30;62.00
4107;DHT22;21906;50.812;7.132;2023-10-09T12:15:51;22.20;61.30
4107;DHT22;21906;50.812;7.132;2023-10-09T12:18:21;22.30;62.60
4107;DHT22;21906;50.812;7.132;2023-10-09T12:20:49;22.30;62.30
4107;DHT22;21906;50.812;7.132;2023-10-09T12:23:22;22.30;63.40
4107;DHT22;21906;50.812;7.132;2023-10-09T12:25:49;22.30;62.10
4107;DHT22;21906;50.812;7.132;2023-10-09T12:28:15;22.30;62.90
4107;DHT22;21906;50.812;7.132;2023-10-09T12:30:46;22.40;63.00
4107;DHT22;21906;50.812;7.132;2023-10-09T12:33:17;22.40;62.30
4107;DHT22;21906;50.812;7.132;2023-10-09T12:35:43;22.40;61.10
4107;DHT22;21906;50.812;7.132;2023-10-09T12:38:13;22.40;61.90
4107;DHT22;21906;50.812;7.132;2023-10-09T12:40:47;22.40;62.80
4107;DHT22;21906;50.812;7.132;2023-10-09T12:43:19;22.40;61.70
4107;DHT22;21906;50.812;7.132;2023-10-09T12:45:48;22.40;63.10
4107;DHT22;21906;50.812;7.132;2023-10-09T12:48:14;22.40;62.50
4107;DHT22;21906;50.812;7.132;2023-10-09T12:50:40;22.40;61.50
4107;DHT22;21906;50.812;7.132;2023-10-09T12:53:10;22.40;61.00
4107;DHT22;21906;50.812;7.132;2023-10-09T12:55:37;22.40;60.20
4107;DHT22;21906;50.812;7.132;2023-10-09T12:58:07;22.40;60.80
4107;DHT22;21906;50.812;7.132;2023-10-09T13:00:34;22.30;60.30
4107;DHT22;21906;50.812;7.132;2023-10-09T13:03:04;22.30;60.30
4107;DHT22;21906;50.812;7.132;2023-10-09T13:05:39;22.30;60.30
4107;DHT22;21906;50.812;7.132;2023-10-09T13:08:18;22.30;59.60
4107;DHT22;21906;50.812;7.132;2023-10-09T13:10:47;22.20;59.80
4107;DHT22;21906;50.812;7.132;2023-10-09T13:13:20;22.30;58.40
4107;DHT22;21906;50.812;7.132;2023-10-09T13:15:46;22.30;57.70
4107;DHT22;21906;50.812;7.132;2023-10-09T13:18:12;22.20;58.00
4107;DHT22;21906;50.812;7.132;2023-10-09T13:20:40;22.20;58.20
4107;DHT22;21906;50.812;7.132;2023-10-09T13:23:06;22.20;58.90
4107;DHT22;21906;50.812;7.132;2023-10-09T13:25:32;22.10;59.10
4107;DHT22;21906;50.812;7.132;2023-10-09T13:28:05;22.00;60.10
4107;DHT22;21906;50.812;7.132;2023-10-09T13:30:31;21.90;60.80
4107;DHT22;21906;50.812;7.132;2023-10-09T13:33:04;21.90;60.00
4107;DHT22;21906;50.812;7.132;2023-10-09T13:35:31;21.90;60.40
4107;DHT22;21906;50.812;7.132;2023-10-09T13:38:03;21.90;60.50
4107;DHT22;21906;50.812;7.132;2023-10-09T13:40:33;21.90;61.10
4107;DHT22;21906;50.812;7.132;2023-10-09T13:43:02;21.90;60.10
4107;DHT22;21906;50.812;7.132;2023-10-09T13:45:29;21.90;60.90
4107;DHT22;21906;50.812;7.132;2023-10-09T13:47:59;21.90;59.90
4107;DHT22;21906;50.812;7.132;2023-10-09T13:50:28;21.90;60.60
4107;DHT22;21906;50.812;7.132;2023-10-09T13:52:58;21.90;60.30
4107;DHT22;21906;50.812;7.132;2023-10-09T13:55:23;21.90;60.40
4107;DHT22;21906;50.812;7.132;2023-10-09T13:57:57;21.90;60.70
4107;DHT22;21906;50.812;7.132;2023-10-09T14:00:23;22.00;60.80
4107;DHT22;21906;50.812;7.132;2023-10-09T14:03:00;21.90;61.00
4107;DHT22;21906;50.812;7.132;2023-10-09T14:05:37;21.90;61.60
4107;DHT22;21906;50.812;7.132;2023-10-09T14:08:10;22.00;62.20
4107;DHT22;21906;50.812;7.132;2023-10-09T14:10:39;21.90;61.10
4107;DHT22;21906;50.812;7.132;2023-10-09T14:13:05;22.00;61.50
4107;DHT22;21906;50.812;7.132;2023-10-09T14:15:38;22.00;60.80
4107;DHT22;21906;50.812;7.132;2023-10-09T14:18:07;22.10;61.80
4107;DHT22;21906;50.812;7.132;2023-10-09T14:20:37;22.20;60.50
4107;DHT22;21906;50.812;7.132;2023-10-09T14:23:03;22.20;60.40
4107;DHT22;21906;50.812;7.132;2023-10-09T14:25:33;22.30;59.70
4107;DHT22;21906;50.812;7.132;2023-10-09T14:28:06;22.40;59.50
4107;DHT22;21906;50.812;7.132;2023-10-09T14:30:37;22.50;59.90
4107;DHT22;21906;50.812;7.132;2023-10-09T14:33:10;22.60;60.30
4107;DHT22;21906;50.812;7.132;2023-10-09T14:35:40;22.80;60.50
4107;DHT22;21906;50.812;7.132;2023-10-09T14:38:10;22.90;58.80
4107;DHT22;21906;50.812;7.132;2023-10-09T14:40:42;23.00;57.00
4107;DHT22;21906;50.812;7.132;2023-10-09T14:43:09;23.10;57.10
4107;DHT22;21906;50.812;7.132;2023-10-09T14:45:48;23.00;56.80
4107;DHT22;21906;50.812;7.132;2023-10-09T14:48:18;23.00;57.60
4107;DHT22;21906;50.812;7.132;2023-10-09T14:50:50;23.10;58.90
4107;DHT22;21906;50.812;7.132;2023-10-09T14:53:20;23.10;58.00
4107;DHT22;21906;50.812;7.132;2023-10-09T14:55:46;23.10;58.20
4107;DHT22;21906;50.812;7.132;2023-10-09T14:58:13;23.20;57.20
4107;DHT22;21906;50.812;7.132;2023-10-09T15:00:40;23.20;56.50
4107;DHT22;21906;50.812;7.132;2023-10-09T15:03:13;23.40;56.50
4107;DHT22;21906;50.812;7.132;2023-10-09T15:05:41;23.40;57.20
4107;DHT22;21906;50.812;7.132;2023-10-09T15:08:07;23.50;56.30
4107;DHT22;21906;50.812;7.132;2023-10-09T15:10:45;23.50;55.60
4107;DHT22;21906;50.812;7.132;2023-10-09T15:13:11;23.40;56.20
4107;DHT22;21906;50.812;7.132;2023-10-09T15:15:42;23.40;56.00
4107;DHT22;21906;50.812;7.132;2023-10-09T15:18:08;23.40;55.50
4107;DHT22;21906;50.812;7.132;2023-10-09T15:20:38;23.40;56.20
4107;DHT22;21906;50.812;7.132;2023-10-09T15:23:05;23.40;55.80
4107;DHT22;21906;50.812;7.132;2023-10-09T15:25:31;23.20;56.50
4107;DHT22;21906;50.812;7.132;2023-10-09T15:28:00;23.10;56.90
4107;DHT22;21906;50.812;7.132;2023-10-09T15:30:26;23.00;56.70
4107;DHT22;21906;50.812;7.132;2023-10-09T15:32:53;22.90;56.30
4107;DHT22;21906;50.812;7.132;2023-10-09T15:35:22;22.80;56.90
4107;DHT22;21906;50.812;7.132;2023-10-09T15:37:48;22.70;57.00
4107;DHT22;21906;50.812;7.132;2023-10-09T15:40:18;22.60;57.20
4107;DHT22;21906;50.812;7.132;2023-10-09T15:42:50;22.40;57.00
4107;DHT22;21906;50.812;7.132;2023-10-09T15:45:16;22.30;57.30
4107;DHT22;21906;50.812;7.132;2023-10-09T15:47:42;22.20;58.00
4107;DHT22;21906;50.812;7.132;2023-10-09T15:50:10;22.20;57.80
4107;DHT22;21906;50.812;7.132;2023-10-09T15:52:38;22.30;57.60
4107;DHT22;21906;50.812;7.132;2023-10-09T15:55:08;22.30;57.00
4107;DHT22;21906;50.812;7.132;2023-10-09T15:57:41;22.30;57.50
4107;DHT22;21906;50.812;7.132;2023-10-09T16:00:08;22.30;57.20
4107;DHT22;21906;50.812;7.132;2023-10-09T16:02:44;22.30;57.60
4107;DHT22;21906;50.812;7.132;2023-10-09T16:05:11;22.30;57.30
4107;DHT22;21906;50.812;7.132;2023-10-09T16:07:38;22.20;57.80
4107;DHT22;21906;50.812;7.132;2023-10-09T16:10:07;22.00;57.70
4107;DHT22;21906;50.812;7.132;2023-10-09T16:12:39;21.90;58.40
4107;DHT22;21906;50.812;7.132;2023-10-09T16:15:09;21.80;58.90
4107;DHT22;21906;50.812;7.132;2023-10-09T16:17:36;21.60;59.30
4107;DHT22;21906;50.812;7.132;2023-10-09T16:20:05;21.60;59.60
4107;DHT22;21906;50.812;7.132;2023-10-09T16:22:40;21.40;59.70
4107;DHT22;21906;50.812;7.132;2023-10-09T16:25:06;21.40;60.10
4107;DHT22;21906;50.812;7.132;2023-10-09T16:27:37;21.20;59.90
4107;DHT22;21906;50.812;7.132;2023-10-09T16:30:06;21.20;60.20
4107;DHT22;21906;50.812;7.132;2023-10-09T16:32:38;20.90;61.40
4107;DHT22;21906;50.812;7.132;2023-10-09T16:35:04;20.90;60.80
4107;DHT22;21906;50.812;7.132;2023-10-09T16:37:30;20.80;61.40
4107;DHT22;21906;50.812;7.132;2023-10-09T16:39:59;20.70;61.40
4107;DHT22;21906;50.812;7.132;2023-10-09T16:42:31;20.70;61.30
4107;DHT22;21906;50.812;7.132;2023-10-09T16:45:02;20.60;61.40
4107;DHT22;21906;50.812;7.132;2023-10-09T16:47:28;20.50;62.20
4107;DHT22;21906;50.812;7.132;2023-10-09T16:49:56;20.40;62.30
4107;DHT22;21906;50.812;7.132;2023-10-09T16:52:22;20.40;62.80
4107;DHT22;21906;50.812;7.132;2023-10-09T16:54:49;20.40;62.50